sensor_id;sensor_type;location;lat;lon;timestamp;P1;durP1;ratioP1;P2;durP2;ratioP2
9150;SDS011;4610;50.006;7.490;2022-08-19T00:00:00;18.20;;;12.50;;
9150;SDS011;4610;50.006;7.490;2022-08-19T00:02:27;15.33;;;12.30;;
9150;SDS011;4610;50.006;7.490;2022-08-19T00:04:54;16.93;;;12.93;;
9150;SDS011;4610;50.006;7.490;2022-08-19T00:07:21;13.77;;;11.60;;
9150;SDS011;4610;50.006;7.490;2022-08-19T00:09:48;13.93;;;12.13;;
9150;SDS011;4610;50.006;7.490;2022-08-19T00:12:16;18.03;;;11.90;;
9150;SDS011;4610;50.006;7.490;2022-08-19T00:14:43;16.40;;;11.73;;
9150;SDS011;4610;50.006;7.490;2022-08-19T00:17:09;16.67;;;11.97;;
9150;SDS011;4610;50.006;7.490;2022-08-19T00:19:37;14.20;;;10.60;;
9150;SDS011;4610;50.006;7.490;2022-08-19T00:22:04;14.77;;;11.60;;
9150;SDS011;4610;50.006;7.490;2022-08-19T00:24:31;14.33;;;11.30;;
9150;SDS011;4610;50.006;7.490;2022-08-19T00:26:58;14.20;;;11.63;;
9150;SDS011;4610;50.006;7.490;2022-08-19T00:29:28;16.40;;;12.43;;
9150;SDS011;4610;50.006;7.490;2022-08-19T00:31:55;15.37;;;11.73;;
9150;SDS011;4610;50.006;7.490;2022-08-19T00:34:23;13.93;;;10.70;;
9150;SDS011;4610;50.006;7.490;2022-08-19T00:36:53;18.23;;;11.80;;
9150;SDS011;4610;50.006;7.490;2022-08-19T00:39:20;13.27;;;10.63;;
9150;SDS011;4610;50.006;7.490;2022-08-19T00:41:48;12.53;;;9.33;;
9150;SDS011;4610;50.006;7.490;2022-08-19T00:44:17;13.27;;;9.73;;
9150;SDS011;4610;50.006;7.490;2022-08-19T00:46:48;11.60;;;9.33;;
9150;SDS011;4610;50.006;7.490;2022-08-19T00:49:19;11.80;;;9.40;;
9150;SDS011;4610;50.006;7.490;2022-08-19T00:51:50;13.23;;;9.80;;
9150;SDS011;4610;50.006;7.490;2022-08-19T00:54:19;13.87;;;9.87;;
9150;SDS011;4610;50.006;7.490;2022-08-19T00:56:47;12.73;;;10.37;;
9150;SDS011;4610;50.006;7.490;2022-08-19T00:59:16;13.70;;;10.17;;
9150;SDS011;4610;50.006;7.490;2022-08-19T01:01:44;12.33;;;9.87;;
9150;SDS011;4610;50.006;7.490;2022-08-19T01:04:13;13.70;;;9.80;;
9150;SDS011;4610;50.006;7.490;2022-08-19T01:06:40;12.97;;;11.03;;
9150;SDS011;4610;50.006;7.490;2022-08-19T01:09:08;15.67;;;10.87;;
9150;SDS011;4610;50.006;7.490;2022-08-19T01:11:36;17.67;;;10.87;;
9150;SDS011;4610;50.006;7.490;2022-08-19T01:14:05;13.90;;;10.90;;
9150;SDS011;4610;50.006;7.490;2022-08-19T01:16:33;14.57;;;10.77;;
9150;SDS011;4610;50.006;7.490;2022-08-19T01:19:00;13.70;;;9.83;;
9150;SDS011;4610;50.006;7.490;2022-08-19T01:21:30;13.57;;;9.63;;
9150;SDS011;4610;50.006;7.490;2022-08-19T01:24:01;10.63;;;9.53;;
9150;SDS011;4610;50.006;7.490;2022-08-19T01:26:29;14.57;;;10.13;;
9150;SDS011;4610;50.006;7.490;2022-08-19T01:28:56;13.53;;;8.97;;
9150;SDS011;4610;50.006;7.490;2022-08-19T01:31:26;13.57;;;8.83;;
9150;SDS011;4610;50.006;7.490;2022-08-19T01:33:56;11.27;;;8.70;;
9150;SDS011;4610;50.006;7.490;2022-08-19T01:36:24;17.97;;;9.10;;
9150;SDS011;4610;50.006;7.490;2022-08-19T01:38:53;11.77;;;9.23;;
9150;SDS011;4610;50.006;7.490;2022-08-19T01:41:21;9.83;;;8.00;;
9150;SDS011;4610;50.006;7.490;2022-08-19T01:43:48;11.97;;;8.13;;
9150;SDS011;4610;50.006;7.490;2022-08-19T01:46:16;9.60;;;8.07;;
9150;SDS011;4610;50.006;7.490;2022-08-19T01:48:43;10.07;;;8.57;;
9150;SDS011;4610;50.006;7.490;2022-08-19T01:51:11;15.13;;;8.97;;
9150;SDS011;4610;50.006;7.490;2022-08-19T01:53:39;13.37;;;8.40;;
9150;SDS011;4610;50.006;7.490;2022-08-19T01:56:07;11.03;;;8.93;;
9150;SDS011;4610;50.006;7.490;2022-08-19T01:58:37;14.57;;;8.70;;
9150;SDS011;4610;50.006;7.490;2022-08-19T02:01:07;12.20;;;9.10;;
9150;SDS011;4610;50.006;7.490;2022-08-19T02:03:34;12.67;;;9.80;;
9150;SDS011;4610;50.006;7.490;2022-08-19T02:06:02;12.50;;;9.43;;
9150;SDS011;4610;50.006;7.490;2022-08-19T02:08:30;16.30;;;10.00;;
9150;SDS011;4610;50.006;7.490;2022-08-19T02:10:59;12.60;;;9.93;;
9150;SDS011;4610;50.006;7.490;2022-08-19T02:13:26;12.30;;;10.20;;
9150;SDS011;4610;50.006;7.490;2022-08-19T02:15:55;11.13;;;9.17;;
9150;SDS011;4610;50.006;7.490;2022-08-19T02:18:22;12.40;;;9.77;;
9150;SDS011;4610;50.006;7.490;2022-08-19T02:20:48;13.37;;;10.33;;
9150;SDS011;4610;50.006;7.490;2022-08-19T02:23:16;14.33;;;10.60;;
9150;SDS011;4610;50.006;7.490;2022-08-19T02:25:43;11.57;;;10.10;;
9150;SDS011;4610;50.006;7.490;2022-08-19T02:28:12;11.93;;;9.77;;
9150;SDS011;4610;50.006;7.490;2022-08-19T02:30:40;11.57;;;9.30;;
9150;SDS011;4610;50.006;7.490;2022-08-19T02:33:09;13.33;;;10.23;;
9150;SDS011;4610;50.006;7.490;2022-08-19T02:35:35;13.63;;;10.07;;
9150;SDS011;4610;50.006;7.490;2022-08-19T02:38:02;14.57;;;11.60;;
9150;SDS011;4610;50.006;7.490;2022-08-19T02:40:50;14.40;;;11.37;;
9150;SDS011;4610;50.006;7.490;2022-08-19T02:43:18;12.93;;;10.93;;
9150;SDS011;4610;50.006;7.490;2022-08-19T02:45:46;14.33;;;11.27;;
9150;SDS011;4610;50.006;7.490;2022-08-19T02:48:15;13.50;;;10.63;;
9150;SDS011;4610;50.006;7.490;2022-08-19T02:50:43;12.77;;;10.67;;
9150;SDS011;4610;50.006;7.490;2022-08-19T02:53:11;12.83;;;11.07;;
9150;SDS011;4610;50.006;7.490;2022-08-19T02:55:41;14.83;;;11.17;;
9150;SDS011;4610;50.006;7.490;2022-08-19T02:58:09;14.63;;;10.57;;
9150;SDS011;4610;50.006;7.490;2022-08-19T03:00:40;13.97;;;10.57;;
9150;SDS011;4610;50.006;7.490;2022-08-19T03:03:08;12.53;;;10.27;;
9150;SDS011;4610;50.006;7.490;2022-08-19T03:05:37;12.63;;;10.43;;
9150;SDS011;4610;50.006;7.490;2022-08-19T03:08:04;14.13;;;10.77;;
9150;SDS011;4610;50.006;7.490;2022-08-19T03:10:31;13.53;;;10.67;;
9150;SDS011;4610;50.006;7.490;2022-08-19T03:12:58;13.03;;;10.53;;
9150;SDS011;4610;50.006;7.490;2022-08-19T03:15:25;13.63;;;10.73;;
9150;SDS011;4610;50.006;7.490;2022-08-19T03:17:52;15.53;;;12.20;;
9150;SDS011;4610;50.006;7.490;2022-08-19T03:20:19;16.17;;;11.23;;
9150;SDS011;4610;50.006;7.490;2022-08-19T03:22:47;14.47;;;11.60;;
9150;SDS011;4610;50.006;7.490;2022-08-19T03:25:14;16.80;;;11.40;;
9150;SDS011;4610;50.006;7.490;2022-08-19T03:27:41;14.73;;;11.03;;
9150;SDS011;4610;50.006;7.490;2022-08-19T03:30:09;15.53;;;10.63;;
9150;SDS011;4610;50.006;7.490;2022-08-19T03:32:37;15.33;;;10.20;;
9150;SDS011;4610;50.006;7.490;2022-08-19T03:35:04;11.13;;;9.80;;
9150;SDS011;4610;50.006;7.490;2022-08-19T03:37:31;12.20;;;9.27;;
9150;SDS011;4610;50.006;7.490;2022-08-19T03:39:59;11.73;;;10.00;;
9150;SDS011;4610;50.006;7.490;2022-08-19T03:42:28;12.23;;;10.20;;
9150;SDS011;4610;50.006;7.490;2022-08-19T03:44:55;12.13;;;9.57;;
9150;SDS011;4610;50.006;7.490;2022-08-19T03:47:23;14.90;;;10.63;;
9150;SDS011;4610;50.006;7.490;2022-08-19T03:49:50;12.40;;;11.10;;
9150;SDS011;4610;50.006;7.490;2022-08-19T03:52:17;16.40;;;11.70;;
9150;SDS011;4610;50.006;7.490;2022-08-19T03:54:44;13.63;;;10.90;;
9150;SDS011;4610;50.006;7.490;2022-08-19T03:57:12;22.23;;;11.13;;
9150;SDS011;4610;50.006;7.490;2022-08-19T03:59:39;14.33;;;11.10;;
9150;SDS011;4610;50.006;7.490;2022-08-19T04:02:08;14.73;;;10.03;;
9150;SDS011;4610;50.006;7.490;2022-08-19T04:04:37;11.00;;;7.87;;
9150;SDS011;4610;50.006;7.490;2022-08-19T04:07:05;12.03;;;7.90;;
9150;SDS011;4610;50.006;7.490;2022-08-19T04:09:33;12.00;;;7.57;;
9150;SDS011;4610;50.006;7.490;2022-08-19T04:12:02;11.87;;;8.43;;
9150;SDS011;4610;50.006;7.490;2022-08-19T04:14:33;9.87;;;7.70;;
9150;SDS011;4610;50.006;7.490;2022-08-19T04:17:00;9.53;;;7.97;;
9150;SDS011;4610;50.006;7.490;2022-08-19T04:19:29;9.37;;;7.70;;
9150;SDS011;4610;50.006;7.490;2022-08-19T04:21:57;10.17;;;8.63;;
9150;SDS011;4610;50.006;7.490;2022-08-19T04:24:24;11.33;;;8.57;;
9150;SDS011;4610;50.006;7.490;2022-08-19T04:26:51;11.20;;;8.83;;
9150;SDS011;4610;50.006;7.490;2022-08-19T04:29:19;10.73;;;8.93;;
9150;SDS011;4610;50.006;7.490;2022-08-19T04:31:51;10.57;;;8.87;;
9150;SDS011;4610;50.006;7.490;2022-08-19T04:34:20;11.70;;;9.10;;
9150;SDS011;4610;50.006;7.490;2022-08-19T04:36:48;9.87;;;8.80;;
9150;SDS011;4610;50.006;7.490;2022-08-19T04:39:17;12.17;;;8.27;;
9150;SDS011;4610;50.006;7.490;2022-08-19T04:41:48;12.70;;;8.60;;
9150;SDS011;4610;50.006;7.490;2022-08-19T04:44:32;16.00;;;8.70;;
9150;SDS011;4610;50.006;7.490;2022-08-19T04:47:03;10.60;;;8.23;;
9150;SDS011;4610;50.006;7.490;2022-08-19T04:49:31;10.77;;;9.00;;
9150;SDS011;4610;50.006;7.490;2022-08-19T04:51:58;11.50;;;8.53;;
9150;SDS011;4610;50.006;7.490;2022-08-19T04:54:24;11.10;;;9.10;;
9150;SDS011;4610;50.006;7.490;2022-08-19T04:56:52;16.20;;;9.07;;
9150;SDS011;4610;50.006;7.490;2022-08-19T04:59:19;13.07;;;9.93;;
9150;SDS011;4610;50.006;7.490;2022-08-19T05:01:47;12.20;;;9.00;;
9150;SDS011;4610;50.006;7.490;2022-08-19T05:04:16;11.97;;;8.27;;
9150;SDS011;4610;50.006;7.490;2022-08-19T05:06:45;17.17;;;8.67;;
9150;SDS011;4610;50.006;7.490;2022-08-19T05:09:14;10.40;;;8.07;;
9150;SDS011;4610;50.006;7.490;2022-08-19T05:11:41;12.53;;;8.53;;
9150;SDS011;4610;50.006;7.490;2022-08-19T05:14:08;10.20;;;8.27;;
9150;SDS011;4610;50.006;7.490;2022-08-19T05:16:37;12.50;;;8.17;;
9150;SDS011;4610;50.006;7.490;2022-08-19T05:19:05;10.57;;;8.17;;
9150;SDS011;4610;50.006;7.490;2022-08-19T05:21:50;8.40;;;7.50;;
9150;SDS011;4610;50.006;7.490;2022-08-19T05:24:35;9.50;;;7.77;;
9150;SDS011;4610;50.006;7.490;2022-08-19T05:27:02;10.73;;;7.90;;
9150;SDS011;4610;50.006;7.490;2022-08-19T05:29:30;11.80;;;8.00;;
9150;SDS011;4610;50.006;7.490;2022-08-19T05:31:59;12.53;;;8.30;;
9150;SDS011;4610;50.006;7.490;2022-08-19T05:34:27;12.27;;;8.67;;
9150;SDS011;4610;50.006;7.490;2022-08-19T05:36:56;14.10;;;8.87;;
9150;SDS011;4610;50.006;7.490;2022-08-19T05:39:26;13.30;;;7.83;;
9150;SDS011;4610;50.006;7.490;2022-08-19T05:41:56;10.40;;;8.53;;
9150;SDS011;4610;50.006;7.490;2022-08-19T05:44:25;12.63;;;8.87;;
9150;SDS011;4610;50.006;7.490;2022-08-19T05:46:56;11.70;;;8.50;;
9150;SDS011;4610;50.006;7.490;2022-08-19T05:49:23;13.27;;;9.13;;
9150;SDS011;4610;50.006;7.490;2022-08-19T05:51:50;8.77;;;7.50;;
9150;SDS011;4610;50.006;7.490;2022-08-19T05:54:19;9.00;;;7.23;;
9150;SDS011;4610;50.006;7.490;2022-08-19T05:56:47;11.73;;;8.30;;
9150;SDS011;4610;50.006;7.490;2022-08-19T05:59:15;13.03;;;7.80;;
9150;SDS011;4610;50.006;7.490;2022-08-19T06:01:45;9.27;;;8.10;;
9150;SDS011;4610;50.006;7.490;2022-08-19T06:04:15;10.93;;;8.30;;
9150;SDS011;4610;50.006;7.490;2022-08-19T06:06:44;10.60;;;8.47;;
9150;SDS011;4610;50.006;7.490;2022-08-19T06:09:11;13.70;;;8.93;;
9150;SDS011;4610;50.006;7.490;2022-08-19T06:11:40;13.07;;;8.67;;
9150;SDS011;4610;50.006;7.490;2022-08-19T06:14:12;12.33;;;8.17;;
9150;SDS011;4610;50.006;7.490;2022-08-19T06:16:43;12.57;;;9.07;;
9150;SDS011;4610;50.006;7.490;2022-08-19T06:19:11;11.00;;;8.63;;
9150;SDS011;4610;50.006;7.490;2022-08-19T06:21:41;10.97;;;9.23;;
9150;SDS011;4610;50.006;7.490;2022-08-19T06:24:09;15.17;;;9.33;;
9150;SDS011;4610;50.006;7.490;2022-08-19T06:26:38;10.93;;;9.70;;
9150;SDS011;4610;50.006;7.490;2022-08-19T06:29:09;11.57;;;10.23;;
9150;SDS011;4610;50.006;7.490;2022-08-19T06:31:40;13.67;;;10.93;;
9150;SDS011;4610;50.006;7.490;2022-08-19T06:34:08;17.33;;;11.00;;
9150;SDS011;4610;50.006;7.490;2022-08-19T06:36:36;13.63;;;10.53;;
9150;SDS011;4610;50.006;7.490;2022-08-19T06:39:06;18.80;;;12.17;;
9150;SDS011;4610;50.006;7.490;2022-08-19T06:41:35;15.70;;;10.93;;
9150;SDS011;4610;50.006;7.490;2022-08-19T06:44:04;13.83;;;11.00;;
9150;SDS011;4610;50.006;7.490;2022-08-19T06:46:31;15.23;;;11.20;;
9150;SDS011;4610;50.006;7.490;2022-08-19T06:48:57;14.97;;;11.10;;
9150;SDS011;4610;50.006;7.490;2022-08-19T06:51:25;14.20;;;11.50;;
9150;SDS011;4610;50.006;7.490;2022-08-19T06:53:53;13.63;;;11.07;;
9150;SDS011;4610;50.006;7.490;2022-08-19T06:56:21;13.23;;;10.73;;
9150;SDS011;4610;50.006;7.490;2022-08-19T06:58:50;19.13;;;11.57;;
9150;SDS011;4610;50.006;7.490;2022-08-19T07:01:19;15.33;;;11.33;;
9150;SDS011;4610;50.006;7.490;2022-08-19T07:03:46;16.53;;;11.13;;
9150;SDS011;4610;50.006;7.490;2022-08-19T07:06:14;18.57;;;10.23;;
9150;SDS011;4610;50.006;7.490;2022-08-19T07:08:44;18.73;;;11.60;;
9150;SDS011;4610;50.006;7.490;2022-08-19T07:11:13;24.30;;;12.53;;
9150;SDS011;4610;50.006;7.490;2022-08-19T07:13:43;19.83;;;12.87;;
9150;SDS011;4610;50.006;7.490;2022-08-19T07:16:11;18.77;;;11.80;;
9150;SDS011;4610;50.006;7.490;2022-08-19T07:18:42;21.97;;;11.63;;
9150;SDS011;4610;50.006;7.490;2022-08-19T07:21:11;17.87;;;11.43;;
9150;SDS011;4610;50.006;7.490;2022-08-19T07:23:40;17.77;;;11.53;;
9150;SDS011;4610;50.006;7.490;2022-08-19T07:26:08;15.57;;;10.50;;
9150;SDS011;4610;50.006;7.490;2022-08-19T07:28:36;20.90;;;11.97;;
9150;SDS011;4610;50.006;7.490;2022-08-19T07:31:04;18.20;;;12.10;;
9150;SDS011;4610;50.006;7.490;2022-08-19T07:33:32;16.17;;;11.30;;
9150;SDS011;4610;50.006;7.490;2022-08-19T07:36:02;14.30;;;10.70;;
9150;SDS011;4610;50.006;7.490;2022-08-19T07:38:29;12.53;;;9.80;;
9150;SDS011;4610;50.006;7.490;2022-08-19T07:40:56;13.50;;;10.10;;
9150;SDS011;4610;50.006;7.490;2022-08-19T07:43:23;17.27;;;10.57;;
9150;SDS011;4610;50.006;7.490;2022-08-19T07:45:51;10.80;;;9.10;;
9150;SDS011;4610;50.006;7.490;2022-08-19T07:48:21;23.27;;;10.77;;
9150;SDS011;4610;50.006;7.490;2022-08-19T07:50:49;16.00;;;10.47;;
9150;SDS011;4610;50.006;7.490;2022-08-19T07:53:18;11.70;;;9.30;;
9150;SDS011;4610;50.006;7.490;2022-08-19T07:55:45;15.13;;;10.73;;
9150;SDS011;4610;50.006;7.490;2022-08-19T07:58:12;10.17;;;8.77;;
9150;SDS011;4610;50.006;7.490;2022-08-19T08:00:41;12.37;;;9.93;;
9150;SDS011;4610;50.006;7.490;2022-08-19T08:03:08;14.10;;;10.80;;
9150;SDS011;4610;50.006;7.490;2022-08-19T08:05:39;15.50;;;11.77;;
9150;SDS011;4610;50.006;7.490;2022-08-19T08:08:25;11.67;;;9.47;;
9150;SDS011;4610;50.006;7.490;2022-08-19T08:11:09;14.27;;;10.83;;
9150;SDS011;4610;50.006;7.490;2022-08-19T08:13:37;13.30;;;11.23;;
9150;SDS011;4610;50.006;7.490;2022-08-19T08:16:06;14.03;;;11.13;;
9150;SDS011;4610;50.006;7.490;2022-08-19T08:18:33;10.40;;;9.30;;
9150;SDS011;4610;50.006;7.490;2022-08-19T08:21:06;11.33;;;10.03;;
9150;SDS011;4610;50.006;7.490;2022-08-19T08:23:35;11.93;;;10.03;;
9150;SDS011;4610;50.006;7.490;2022-08-19T08:26:02;14.93;;;8.90;;
9150;SDS011;4610;50.006;7.490;2022-08-19T08:28:29;10.17;;;9.10;;
9150;SDS011;4610;50.006;7.490;2022-08-19T08:30:57;12.13;;;8.80;;
9150;SDS011;4610;50.006;7.490;2022-08-19T08:33:26;9.53;;;7.70;;
9150;SDS011;4610;50.006;7.490;2022-08-19T08:35:54;15.00;;;8.43;;
9150;SDS011;4610;50.006;7.490;2022-08-19T08:38:21;12.30;;;8.07;;
9150;SDS011;4610;50.006;7.490;2022-08-19T08:40:50;12.10;;;8.33;;
9150;SDS011;4610;50.006;7.490;2022-08-19T08:43:23;10.77;;;8.10;;
9150;SDS011;4610;50.006;7.490;2022-08-19T08:46:00;7.53;;;6.70;;
9150;SDS011;4610;50.006;7.490;2022-08-19T08:48:32;9.13;;;6.77;;
9150;SDS011;4610;50.006;7.490;2022-08-19T08:51:04;10.07;;;6.87;;
9150;SDS011;4610;50.006;7.490;2022-08-19T08:53:35;9.93;;;7.33;;
9150;SDS011;4610;50.006;7.490;2022-08-19T08:56:04;9.67;;;7.27;;
9150;SDS011;4610;50.006;7.490;2022-08-19T08:58:41;8.13;;;6.60;;
9150;SDS011;4610;50.006;7.490;2022-08-19T09:01:12;10.70;;;6.57;;
9150;SDS011;4610;50.006;7.490;2022-08-19T09:03:40;7.77;;;6.83;;
9150;SDS011;4610;50.006;7.490;2022-08-19T09:06:12;8.43;;;7.07;;
9150;SDS011;4610;50.006;7.490;2022-08-19T09:08:47;7.90;;;6.13;;
9150;SDS011;4610;50.006;7.490;2022-08-19T09:11:23;7.17;;;6.07;;
9150;SDS011;4610;50.006;7.490;2022-08-19T09:14:06;9.60;;;6.70;;
9150;SDS011;4610;50.006;7.490;2022-08-19T09:16:41;7.57;;;6.40;;
9150;SDS011;4610;50.006;7.490;2022-08-19T09:19:08;13.03;;;5.97;;
9150;SDS011;4610;50.006;7.490;2022-08-19T09:21:35;9.50;;;6.10;;
9150;SDS011;4610;50.006;7.490;2022-08-19T09:24:03;9.20;;;6.07;;
9150;SDS011;4610;50.006;7.490;2022-08-19T09:26:32;7.20;;;5.67;;
9150;SDS011;4610;50.006;7.490;2022-08-19T09:28:59;8.47;;;6.03;;
9150;SDS011;4610;50.006;7.490;2022-08-19T09:31:28;8.07;;;5.97;;
9150;SDS011;4610;50.006;7.490;2022-08-19T09:33:55;10.23;;;5.77;;
9150;SDS011;4610;50.006;7.490;2022-08-19T09:36:23;7.63;;;6.23;;
9150;SDS011;4610;50.006;7.490;2022-08-19T09:38:51;7.10;;;5.60;;
9150;SDS011;4610;50.006;7.490;2022-08-19T09:41:19;6.67;;;5.50;;
9150;SDS011;4610;50.006;7.490;2022-08-19T09:43:50;7.50;;;5.33;;
9150;SDS011;4610;50.006;7.490;2022-08-19T09:46:20;9.33;;;5.83;;
9150;SDS011;4610;50.006;7.490;2022-08-19T09:48:48;6.47;;;5.33;;
9150;SDS011;4610;50.006;7.490;2022-08-19T09:51:17;7.03;;;5.57;;
9150;SDS011;4610;50.006;7.490;2022-08-19T09:53:46;6.57;;;5.37;;
9150;SDS011;4610;50.006;7.490;2022-08-19T09:56:15;7.60;;;5.43;;
9150;SDS011;4610;50.006;7.490;2022-08-19T09:58:43;5.53;;;4.80;;
9150;SDS011;4610;50.006;7.490;2022-08-19T10:01:15;5.63;;;4.70;;
9150;SDS011;4610;50.006;7.490;2022-08-19T10:03:46;6.83;;;4.50;;
9150;SDS011;4610;50.006;7.490;2022-08-19T10:06:14;6.33;;;4.90;;
9150;SDS011;4610;50.006;7.490;2022-08-19T10:08:41;5.30;;;4.80;;
9150;SDS011;4610;50.006;7.490;2022-08-19T10:11:08;6.33;;;4.30;;
9150;SDS011;4610;50.006;7.490;2022-08-19T10:13:35;5.43;;;4.30;;
9150;SDS011;4610;50.006;7.490;2022-08-19T10:16:03;5.70;;;5.10;;
9150;SDS011;4610;50.006;7.490;2022-08-19T10:18:34;6.57;;;4.73;;
9150;SDS011;4610;50.006;7.490;2022-08-19T10:21:03;7.17;;;5.00;;
9150;SDS011;4610;50.006;7.490;2022-08-19T10:23:34;7.00;;;4.67;;
9150;SDS011;4610;50.006;7.490;2022-08-19T10:26:01;6.93;;;4.40;;
9150;SDS011;4610;50.006;7.490;2022-08-19T10:28:31;4.50;;;4.07;;
9150;SDS011;4610;50.006;7.490;2022-08-19T10:31:02;4.60;;;3.80;;
9150;SDS011;4610;50.006;7.490;2022-08-19T10:33:31;4.87;;;3.60;;
9150;SDS011;4610;50.006;7.490;2022-08-19T10:36:00;4.73;;;3.80;;
9150;SDS011;4610;50.006;7.490;2022-08-19T10:38:27;5.20;;;3.93;;
9150;SDS011;4610;50.006;7.490;2022-08-19T10:40:54;4.87;;;4.00;;
9150;SDS011;4610;50.006;7.490;2022-08-19T10:43:21;5.03;;;3.90;;
9150;SDS011;4610;50.006;7.490;2022-08-19T10:45:51;4.87;;;3.57;;
9150;SDS011;4610;50.006;7.490;2022-08-19T10:48:21;6.20;;;4.73;;
9150;SDS011;4610;50.006;7.490;2022-08-19T10:50:49;6.77;;;4.13;;
9150;SDS011;4610;50.006;7.490;2022-08-19T10:53:33;7.03;;;3.87;;
9150;SDS011;4610;50.006;7.490;2022-08-19T10:56:00;9.73;;;3.93;;
9150;SDS011;4610;50.006;7.490;2022-08-19T10:58:45;6.33;;;4.50;;
9150;SDS011;4610;50.006;7.490;2022-08-19T11:01:12;5.03;;;4.27;;
9150;SDS011;4610;50.006;7.490;2022-08-19T11:03:38;6.83;;;3.47;;
9150;SDS011;4610;50.006;7.490;2022-08-19T11:06:07;4.83;;;3.80;;
9150;SDS011;4610;50.006;7.490;2022-08-19T11:08:35;4.53;;;3.63;;
9150;SDS011;4610;50.006;7.490;2022-08-19T11:11:03;9.43;;;3.70;;
9150;SDS011;4610;50.006;7.490;2022-08-19T11:13:33;4.67;;;3.30;;
9150;SDS011;4610;50.006;7.490;2022-08-19T11:16:03;5.43;;;3.67;;
9150;SDS011;4610;50.006;7.490;2022-08-19T11:18:31;5.97;;;4.20;;
9150;SDS011;4610;50.006;7.490;2022-08-19T11:21:04;7.03;;;3.57;;
9150;SDS011;4610;50.006;7.490;2022-08-19T11:23:34;4.40;;;3.77;;
9150;SDS011;4610;50.006;7.490;2022-08-19T11:26:01;3.70;;;3.33;;
9150;SDS011;4610;50.006;7.490;2022-08-19T11:28:28;3.80;;;3.40;;
9150;SDS011;4610;50.006;7.490;2022-08-19T11:30:55;7.73;;;3.90;;
9150;SDS011;4610;50.006;7.490;2022-08-19T11:33:22;4.00;;;3.33;;
9150;SDS011;4610;50.006;7.490;2022-08-19T11:35:51;3.97;;;3.57;;
9150;SDS011;4610;50.006;7.490;2022-08-19T11:38:19;3.87;;;3.07;;
9150;SDS011;4610;50.006;7.490;2022-08-19T11:40:53;3.70;;;3.30;;
9150;SDS011;4610;50.006;7.490;2022-08-19T11:43:21;5.07;;;3.43;;
9150;SDS011;4610;50.006;7.490;2022-08-19T11:45:48;5.33;;;3.17;;
9150;SDS011;4610;50.006;7.490;2022-08-19T11:48:15;4.00;;;3.20;;
9150;SDS011;4610;50.006;7.490;2022-08-19T11:50:42;4.17;;;3.43;;
9150;SDS011;4610;50.006;7.490;2022-08-19T11:53:09;4.70;;;3.53;;
9150;SDS011;4610;50.006;7.490;2022-08-19T11:55:37;3.60;;;3.27;;
9150;SDS011;4610;50.006;7.490;2022-08-19T11:58:05;4.10;;;3.57;;
9150;SDS011;4610;50.006;7.490;2022-08-19T12:00:32;6.07;;;3.50;;
9150;SDS011;4610;50.006;7.490;2022-08-19T12:03:00;4.97;;;4.30;;
9150;SDS011;4610;50.006;7.490;2022-08-19T12:05:27;5.90;;;3.67;;
9150;SDS011;4610;50.006;7.490;2022-08-19T12:07:54;6.37;;;4.10;;
9150;SDS011;4610;50.006;7.490;2022-08-19T12:10:21;4.60;;;4.00;;
9150;SDS011;4610;50.006;7.490;2022-08-19T12:12:49;5.17;;;3.93;;
9150;SDS011;4610;50.006;7.490;2022-08-19T12:15:16;7.47;;;4.40;;
9150;SDS011;4610;50.006;7.490;2022-08-19T12:17:43;10.13;;;5.23;;
9150;SDS011;4610;50.006;7.490;2022-08-19T12:20:10;7.97;;;4.00;;
9150;SDS011;4610;50.006;7.490;2022-08-19T12:22:40;5.10;;;3.90;;
9150;SDS011;4610;50.006;7.490;2022-08-19T12:25:07;4.60;;;4.10;;
9150;SDS011;4610;50.006;7.490;2022-08-19T12:27:35;7.60;;;3.90;;
9150;SDS011;4610;50.006;7.490;2022-08-19T12:30:04;5.07;;;3.90;;
9150;SDS011;4610;50.006;7.490;2022-08-19T12:32:33;5.57;;;3.97;;
9150;SDS011;4610;50.006;7.490;2022-08-19T12:35:00;5.37;;;4.20;;
9150;SDS011;4610;50.006;7.490;2022-08-19T12:37:27;6.10;;;3.93;;
9150;SDS011;4610;50.006;7.490;2022-08-19T12:39:57;4.30;;;3.90;;
9150;SDS011;4610;50.006;7.490;2022-08-19T12:42:24;5.67;;;3.97;;
9150;SDS011;4610;50.006;7.490;2022-08-19T12:44:50;4.33;;;3.67;;
9150;SDS011;4610;50.006;7.490;2022-08-19T12:47:19;4.03;;;3.63;;
9150;SDS011;4610;50.006;7.490;2022-08-19T12:49:46;4.20;;;3.80;;
9150;SDS011;4610;50.006;7.490;2022-08-19T12:52:14;5.47;;;3.90;;
9150;SDS011;4610;50.006;7.490;2022-08-19T12:54:41;12.97;;;4.47;;
9150;SDS011;4610;50.006;7.490;2022-08-19T12:57:09;6.60;;;3.63;;
9150;SDS011;4610;50.006;7.490;2022-08-19T12:59:37;5.50;;;4.13;;
9150;SDS011;4610;50.006;7.490;2022-08-19T13:02:06;5.10;;;4.03;;
9150;SDS011;4610;50.006;7.490;2022-08-19T13:04:35;6.10;;;3.80;;
9150;SDS011;4610;50.006;7.490;2022-08-19T13:07:05;5.00;;;3.77;;
9150;SDS011;4610;50.006;7.490;2022-08-19T13:09:33;5.80;;;4.03;;
9150;SDS011;4610;50.006;7.490;2022-08-19T13:12:01;5.23;;;4.40;;
9150;SDS011;4610;50.006;7.490;2022-08-19T13:14:32;4.77;;;3.77;;
9150;SDS011;4610;50.006;7.490;2022-08-19T13:16:59;6.10;;;4.33;;
9150;SDS011;4610;50.006;7.490;2022-08-19T13:19:26;5.20;;;4.70;;
9150;SDS011;4610;50.006;7.490;2022-08-19T13:21:54;5.23;;;4.40;;
9150;SDS011;4610;50.006;7.490;2022-08-19T13:24:22;7.03;;;5.23;;
9150;SDS011;4610;50.006;7.490;2022-08-19T13:26:49;6.63;;;5.03;;
9150;SDS011;4610;50.006;7.490;2022-08-19T13:29:16;6.60;;;5.30;;
9150;SDS011;4610;50.006;7.490;2022-08-19T13:32:00;6.47;;;4.87;;
9150;SDS011;4610;50.006;7.490;2022-08-19T13:34:47;5.33;;;4.33;;
9150;SDS011;4610;50.006;7.490;2022-08-19T13:37:15;6.40;;;4.50;;
9150;SDS011;4610;50.006;7.490;2022-08-19T13:40:03;5.53;;;4.50;;
9150;SDS011;4610;50.006;7.490;2022-08-19T13:42:30;7.83;;;5.20;;
9150;SDS011;4610;50.006;7.490;2022-08-19T13:44:57;4.30;;;3.70;;
9150;SDS011;4610;50.006;7.490;2022-08-19T13:47:24;6.03;;;4.50;;
9150;SDS011;4610;50.006;7.490;2022-08-19T13:49:51;6.47;;;4.60;;
9150;SDS011;4610;50.006;7.490;2022-08-19T13:52:19;5.50;;;4.60;;
9150;SDS011;4610;50.006;7.490;2022-08-19T13:54:46;5.57;;;4.33;;
9150;SDS011;4610;50.006;7.490;2022-08-19T13:57:13;6.07;;;4.60;;
9150;SDS011;4610;50.006;7.490;2022-08-19T13:59:40;5.03;;;4.53;;
9150;SDS011;4610;50.006;7.490;2022-08-19T14:02:07;5.73;;;4.23;;
9150;SDS011;4610;50.006;7.490;2022-08-19T14:04:35;9.30;;;4.97;;
9150;SDS011;4610;50.006;7.490;2022-08-19T14:07:02;7.03;;;4.37;;
9150;SDS011;4610;50.006;7.490;2022-08-19T14:09:31;8.13;;;4.70;;
9150;SDS011;4610;50.006;7.490;2022-08-19T14:11:57;7.40;;;4.70;;
9150;SDS011;4610;50.006;7.490;2022-08-19T14:14:24;5.83;;;4.50;;
9150;SDS011;4610;50.006;7.490;2022-08-19T14:16:51;6.83;;;4.27;;
9150;SDS011;4610;50.006;7.490;2022-08-19T14:19:18;6.90;;;4.93;;
9150;SDS011;4610;50.006;7.490;2022-08-19T14:21:45;7.00;;;4.90;;
9150;SDS011;4610;50.006;7.490;2022-08-19T14:24:14;7.33;;;4.67;;
9150;SDS011;4610;50.006;7.490;2022-08-19T14:26:42;6.50;;;5.00;;
9150;SDS011;4610;50.006;7.490;2022-08-19T14:29:09;5.57;;;4.93;;
9150;SDS011;4610;50.006;7.490;2022-08-19T14:31:37;6.33;;;5.10;;
9150;SDS011;4610;50.006;7.490;2022-08-19T14:34:08;6.67;;;5.23;;
9150;SDS011;4610;50.006;7.490;2022-08-19T14:36:35;5.73;;;4.50;;
9150;SDS011;4610;50.006;7.490;2022-08-19T14:39:02;5.43;;;4.63;;
9150;SDS011;4610;50.006;7.490;2022-08-19T14:41:29;8.23;;;5.00;;
9150;SDS011;4610;50.006;7.490;2022-08-19T14:43:57;7.40;;;4.47;;
9150;SDS011;4610;50.006;7.490;2022-08-19T14:46:26;6.87;;;4.50;;
9150;SDS011;4610;50.006;7.490;2022-08-19T14:48:54;7.77;;;4.57;;
9150;SDS011;4610;50.006;7.490;2022-08-19T14:51:22;5.83;;;4.90;;
9150;SDS011;4610;50.006;7.490;2022-08-19T14:53:51;6.00;;;4.63;;
9150;SDS011;4610;50.006;7.490;2022-08-19T14:56:19;6.30;;;4.80;;
9150;SDS011;4610;50.006;7.490;2022-08-19T14:58:47;6.33;;;4.90;;
9150;SDS011;4610;50.006;7.490;2022-08-19T15:01:17;4.83;;;4.30;;
9150;SDS011;4610;50.006;7.490;2022-08-19T15:03:46;6.13;;;5.10;;
9150;SDS011;4610;50.006;7.490;2022-08-19T15:06:13;6.67;;;5.20;;
9150;SDS011;4610;50.006;7.490;2022-08-19T15:08:40;6.07;;;5.43;;
9150;SDS011;4610;50.006;7.490;2022-08-19T15:11:10;9.37;;;5.17;;